sensor_id;sensor_type;location;lat;lon;timestamp;temperature;humidity
43087;DHT22;28708;52.224;6.924;2024-01-11T00:02:18;-3.70;99.90
43087;DHT22;28708;52.224;6.924;2024-01-11T00:04:44;-3.70;99.90
43087;DHT22;28708;52.224;6.924;2024-01-11T00:07:09;-3.70;99.90
43087;DHT22;28708;52.224;6.924;2024-01-11T00:09:42;-3.80;99.90
43087;DHT22;28708;52.224;6.924;2024-01-11T00:12:08;-3.70;99.90
43087;DHT22;28708;52.224;6.924;2024-01-11T00:14:35;-3.70;99.90
43087;DHT22;28708;52.224;6.924;2024-01-11T00:17:01;-3.80;99.90
43087;DHT22;28708;52.224;6.924;2024-01-11T00:19:26;-3.70;99.90
43087;DHT22;28708;52.224;6.924;2024-01-11T00:21:52;-3.70;99.90
43087;DHT22;28708;52.224;6.924;2024-01-11T00:24:17;-3.80;99.90
43087;DHT22;28708;52.224;6.924;2024-01-11T00:26:43;-3.80;99.90
43087;DHT22;28708;52.224;6.924;2024-01-11T00:29:09;-3.90;99.90
43087;DHT22;28708;52.224;6.924;2024-01-11T00:31:34;-3.90;99.90
43087;DHT22;28708;52.224;6.924;2024-01-11T00:34:01;-3.90;99.90
43087;DHT22;28708;52.224;6.924;2024-01-11T00:36:26;-3.90;99.90
43087;DHT22;28708;52.224;6.924;2024-01-11T00:38:54;-3.90;99.90
43087;DHT22;28708;52.224;6.924;2024-01-11T00:41:19;-3.90;99.90
43087;DHT22;28708;52.224;6.924;2024-01-11T00:43:45;-3.90;99.90
43087;DHT22;28708;52.224;6.924;2024-01-11T00:46:10;-3.90;99.90
43087;DHT22;28708;52.224;6.924;2024-01-11T00:48:36;-3.90;99.90
43087;DHT22;28708;52.224;6.924;2024-01-11T00:51:04;-3.90;99.90
43087;DHT22;28708;52.224;6.924;2024-01-11T00:53:29;-3.80;99.90
43087;DHT22;28708;52.224;6.924;2024-01-11T00:56:00;-3.90;99.90
43087;DHT22;28708;52.224;6.924;2024-01-11T00:58:26;-3.90;99.90
43087;DHT22;28708;52.224;6.924;2024-01-11T01:00:52;-3.80;99.90
43087;DHT22;28708;52.224;6.924;2024-01-11T01:03:21;-3.80;99.90
43087;DHT22;28708;52.224;6.924;2024-01-11T01:05:46;-3.90;99.90
43087;DHT22;28708;52.224;6.924;2024-01-11T01:08:12;-3.90;99.90
43087;DHT22;28708;52.224;6.924;2024-01-11T01:10:38;-3.90;99.90
43087;DHT22;28708;52.224;6.924;2024-01-11T01:13:05;-3.80;99.90
43087;DHT22;28708;52.224;6.924;2024-01-11T01:15:31;-3.90;99.90
43087;DHT22;28708;52.224;6.924;2024-01-11T01:17:57;-3.90;99.90
43087;DHT22;28708;52.224;6.924;2024-01-11T01:20:23;-4.00;99.90
43087;DHT22;28708;52.224;6.924;2024-01-11T01:22:49;-4.00;99.90
43087;DHT22;28708;52.224;6.924;2024-01-11T01:25:15;-4.00;99.90
43087;DHT22;28708;52.224;6.924;2024-01-11T01:27:41;-4.00;99.90
43087;DHT22;28708;52.224;6.924;2024-01-11T01:30:07;-4.00;99.90
43087;DHT22;28708;52.224;6.924;2024-01-11T01:32:34;-4.00;99.90
43087;DHT22;28708;52.224;6.924;2024-01-11T01:35:00;-4.00;99.90
43087;DHT22;28708;52.224;6.924;2024-01-11T01:37:25;-4.00;99.90
43087;DHT22;28708;52.224;6.924;2024-01-11T01:39:51;-4.00;99.90
43087;DHT22;28708;52.224;6.924;2024-01-11T01:42:17;-4.00;99.90
43087;DHT22;28708;52.224;6.924;2024-01-11T01:44:42;-4.10;99.90
43087;DHT22;28708;52.224;6.924;2024-01-11T01:47:09;-4.10;99.90
43087;DHT22;28708;52.224;6.924;2024-01-11T01:49:36;-4.10;99.90
43087;DHT22;28708;52.224;6.924;2024-01-11T01:52:02;-4.20;99.90
43087;DHT22;28708;52.224;6.924;2024-01-11T01:54:28;-4.20;99.90
43087;DHT22;28708;52.224;6.924;2024-01-11T01:56:54;-4.10;99.90
43087;DHT22;28708;52.224;6.924;2024-01-11T01:59:21;-4.20;99.90
43087;DHT22;28708;52.224;6.924;2024-01-11T02:01:48;-4.10;99.90
43087;DHT22;28708;52.224;6.924;2024-01-11T02:04:14;-4.20;99.90
43087;DHT22;28708;52.224;6.924;2024-01-11T02:06:40;-4.20;99.90
43087;DHT22;28708;52.224;6.924;2024-01-11T02:09:07;-4.20;99.90
43087;DHT22;28708;52.224;6.924;2024-01-11T02:11:34;-4.10;99.90
43087;DHT22;28708;52.224;6.924;2024-01-11T02:14:00;-4.20;99.90
43087;DHT22;28708;52.224;6.924;2024-01-11T02:16:25;-4.30;99.90
43087;DHT22;28708;52.224;6.924;2024-01-11T02:18:51;-4.30;99.90
43087;DHT22;28708;52.224;6.924;2024-01-11T02:21:17;-4.30;99.90
43087;DHT22;28708;52.224;6.924;2024-01-11T02:23:44;-4.30;99.90
43087;DHT22;28708;52.224;6.924;2024-01-11T02:26:15;-4.30;99.90
43087;DHT22;28708;52.224;6.924;2024-01-11T02:28:45;-4.30;99.90
43087;DHT22;28708;52.224;6.924;2024-01-11T02:31:12;-4.40;99.90
43087;DHT22;28708;52.224;6.924;2024-01-11T02:33:38;-4.40;99.90
43087;DHT22;28708;52.224;6.924;2024-01-11T02:36:05;-4.40;99.90
43087;DHT22;28708;52.224;6.924;2024-01-11T02:38:32;-4.40;99.90
43087;DHT22;28708;52.224;6.924;2024-01-11T02:40:59;-4.50;99.90
43087;DHT22;28708;52.224;6.924;2024-01-11T02:43:25;-4.40;99.90
43087;DHT22;28708;52.224;6.924;2024-01-11T02:45:54;-4.40;99.90
43087;DHT22;28708;52.224;6.924;2024-01-11T02:48:20;-4.40;99.90
43087;DHT22;28708;52.224;6.924;2024-01-11T02:50:47;-4.50;99.90
43087;DHT22;28708;52.224;6.924;2024-01-11T02:53:12;-4.50;99.90
43087;DHT22;28708;52.224;6.924;2024-01-11T02:55:38;-4.50;99.90
43087;DHT22;28708;52.224;6.924;2024-01-11T02:58:04;-4.50;99.90
43087;DHT22;28708;52.224;6.924;2024-01-11T03:00:29;-4.50;99.90
43087;DHT22;28708;52.224;6.924;2024-01-11T03:02:55;-4.60;99.90
43087;DHT22;28708;52.224;6.924;2024-01-11T03:05:20;-4.50;99.90
43087;DHT22;28708;52.224;6.924;2024-01-11T03:07:46;-4.60;99.90
43087;DHT22;28708;52.224;6.924;2024-01-11T03:10:11;-4.60;99.90
43087;DHT22;28708;52.224;6.924;2024-01-11T03:12:39;-4.60;99.90
43087;DHT22;28708;52.224;6.924;2024-01-11T03:15:04;-4.80;99.90
43087;DHT22;28708;52.224;6.924;2024-01-11T03:17:30;-4.80;99.90
43087;DHT22;28708;52.224;6.924;2024-01-11T03:19:56;-4.70;99.90
43087;DHT22;28708;52.224;6.924;2024-01-11T03:22:21;-4.60;99.90
43087;DHT22;28708;52.224;6.924;2024-01-11T03:24:47;-4.70;99.90
43087;DHT22;28708;52.224;6.924;2024-01-11T03:27:13;-4.70;99.90
43087;DHT22;28708;52.224;6.924;2024-01-11T03:29:38;-4.80;99.90
43087;DHT22;28708;52.224;6.924;2024-01-11T03:32:04;-4.70;99.90
43087;DHT22;28708;52.224;6.924;2024-01-11T03:34:30;-4.70;99.90
43087;DHT22;28708;52.224;6.924;2024-01-11T03:36:55;-4.70;99.90
43087;DHT22;28708;52.224;6.924;2024-01-11T03:39:21;-4.80;99.90
43087;DHT22;28708;52.224;6.924;2024-01-11T03:41:47;-4.80;99.90
43087;DHT22;28708;52.224;6.924;2024-01-11T03:44:12;-4.80;99.90
43087;DHT22;28708;52.224;6.924;2024-01-11T03:46:38;-4.80;99.90
43087;DHT22;28708;52.224;6.924;2024-01-11T03:49:04;-4.80;99.90
43087;DHT22;28708;52.224;6.924;2024-01-11T03:51:29;-4.80;99.90
43087;DHT22;28708;52.224;6.924;2024-01-11T03:53:55;-4.80;99.90
43087;DHT22;28708;52.224;6.924;2024-01-11T03:56:20;-4.80;99.90
43087;DHT22;28708;52.224;6.924;2024-01-11T03:58:46;-4.90;99.90
43087;DHT22;28708;52.224;6.924;2024-01-11T04:01:12;-4.80;99.90
43087;DHT22;28708;52.224;6.924;2024-01-11T04:03:37;-4.90;99.90
43087;DHT22;28708;52.224;6.924;2024-01-11T04:06:04;-4.80;99.90
43087;DHT22;28708;52.224;6.924;2024-01-11T04:08:29;-4.70;99.90
43087;DHT22;28708;52.224;6.924;2024-01-11T04:10:55;-4.80;99.90
43087;DHT22;28708;52.224;6.924;2024-01-11T04:13:20;-4.70;99.90
43087;DHT22;28708;52.224;6.924;2024-01-11T04:15:46;-4.80;99.90
43087;DHT22;28708;52.224;6.924;2024-01-11T04:18:12;-4.70;99.90
43087;DHT22;28708;52.224;6.924;2024-01-11T04:20:37;-4.60;99.90
43087;DHT22;28708;52.224;6.924;2024-01-11T04:23:03;-4.60;99.90
43087;DHT22;28708;52.224;6.924;2024-01-11T04:25:29;-4.60;99.90
43087;DHT22;28708;52.224;6.924;2024-01-11T04:27:54;-4.70;99.90
43087;DHT22;28708;52.224;6.924;2024-01-11T04:30:20;-4.70;99.90
43087;DHT22;28708;52.224;6.924;2024-01-11T04:32:45;-4.70;99.90
43087;DHT22;28708;52.224;6.924;2024-01-11T04:35:11;-4.70;99.90
43087;DHT22;28708;52.224;6.924;2024-01-11T04:37:37;-4.60;99.90
43087;DHT22;28708;52.224;6.924;2024-01-11T04:40:03;-4.70;99.90
43087;DHT22;28708;52.224;6.924;2024-01-11T04:42:29;-4.60;99.90
43087;DHT22;28708;52.224;6.924;2024-01-11T04:44:54;-4.70;99.90
43087;DHT22;28708;52.224;6.924;2024-01-11T04:47:20;-4.70;99.90
43087;DHT22;28708;52.224;6.924;2024-01-11T04:49:46;-4.60;99.90
43087;DHT22;28708;52.224;6.924;2024-01-11T04:52:11;-4.60;99.90
43087;DHT22;28708;52.224;6.924;2024-01-11T04:54:37;-4.80;99.90
43087;DHT22;28708;52.224;6.924;2024-01-11T04:57:03;-4.70;99.90
43087;DHT22;28708;52.224;6.924;2024-01-11T04:59:29;-4.70;99.90
43087;DHT22;28708;52.224;6.924;2024-01-11T05:01:55;-4.70;99.90
43087;DHT22;28708;52.224;6.924;2024-01-11T05:04:20;-4.70;99.90
43087;DHT22;28708;52.224;6.924;2024-01-11T05:06:46;-4.70;99.90
43087;DHT22;28708;52.224;6.924;2024-01-11T05:09:12;-4.70;99.90
43087;DHT22;28708;52.224;6.924;2024-01-11T05:11:37;-4.80;99.90
43087;DHT22;28708;52.224;6.924;2024-01-11T05:14:03;-4.80;99.90
43087;DHT22;28708;52.224;6.924;2024-01-11T05:16:29;-4.80;99.90
43087;DHT22;28708;52.224;6.924;2024-01-11T05:18:56;-4.70;99.90
43087;DHT22;28708;52.224;6.924;2024-01-11T05:21:22;-4.80;99.90
43087;DHT22;28708;52.224;6.924;2024-01-11T05:23:48;-4.90;99.90
43087;DHT22;28708;52.224;6.924;2024-01-11T05:26:18;-4.80;99.90
43087;DHT22;28708;52.224;6.924;2024-01-11T05:28:43;-4.80;99.90
43087;DHT22;28708;52.224;6.924;2024-01-11T05:31:13;-4.80;99.90
43087;DHT22;28708;52.224;6.924;2024-01-11T05:33:42;-4.80;99.90
43087;DHT22;28708;52.224;6.924;2024-01-11T05:36:08;-4.80;99.90
43087;DHT22;28708;52.224;6.924;2024-01-11T05:38:35;-4.90;99.90
43087;DHT22;28708;52.224;6.924;2024-01-11T05:41:00;-4.80;99.90
43087;DHT22;28708;52.224;6.924;2024-01-11T05:43:26;-4.80;99.90
43087;DHT22;28708;52.224;6.924;2024-01-11T05:45:52;-4.90;99.90
43087;DHT22;28708;52.224;6.924;2024-01-11T05:48:17;-5.00;99.90
43087;DHT22;28708;52.224;6.924;2024-01-11T05:50:44;-5.00;99.90
43087;DHT22;28708;52.224;6.924;2024-01-11T05:53:10;-5.00;99.90
43087;DHT22;28708;52.224;6.924;2024-01-11T05:55:35;-4.90;99.90
43087;DHT22;28708;52.224;6.924;2024-01-11T05:58:01;-4.90;99.90
43087;DHT22;28708;52.224;6.924;2024-01-11T06:00:27;-5.00;99.90
43087;DHT22;28708;52.224;6.924;2024-01-11T06:02:52;-5.00;99.90
43087;DHT22;28708;52.224;6.924;2024-01-11T06:05:18;-4.90;99.90
43087;DHT22;28708;52.224;6.924;2024-01-11T06:07:44;-4.90;99.90
43087;DHT22;28708;52.224;6.924;2024-01-11T06:10:09;-4.90;99.90
43087;DHT22;28708;52.224;6.924;2024-01-11T06:12:35;-4.90;99.90
43087;DHT22;28708;52.224;6.924;2024-01-11T06:15:02;-5.00;99.90
43087;DHT22;28708;52.224;6.924;2024-01-11T06:17:28;-5.00;99.90
43087;DHT22;28708;52.224;6.924;2024-01-11T06:19:54;-5.00;99.90
43087;DHT22;28708;52.224;6.924;2024-01-11T06:22:20;-5.00;99.90
43087;DHT22;28708;52.224;6.924;2024-01-11T06:24:46;-4.90;99.90
43087;DHT22;28708;52.224;6.924;2024-01-11T06:27:12;-4.90;99.90
43087;DHT22;28708;52.224;6.924;2024-01-11T06:29:37;-4.90;99.90
43087;DHT22;28708;52.224;6.924;2024-01-11T06:32:03;-4.90;99.90
43087;DHT22;28708;52.224;6.924;2024-01-11T06:34:29;-4.90;99.90
43087;DHT22;28708;52.224;6.924;2024-01-11T06:36:55;-4.90;99.90
43087;DHT22;28708;52.224;6.924;2024-01-11T06:39:21;-4.80;99.90
43087;DHT22;28708;52.224;6.924;2024-01-11T06:41:47;-4.80;99.90
43087;DHT22;28708;52.224;6.924;2024-01-11T06:44:12;-4.80;99.90
43087;DHT22;28708;52.224;6.924;2024-01-11T06:46:38;-4.80;99.90
43087;DHT22;28708;52.224;6.924;2024-01-11T06:49:07;-4.70;99.90
43087;DHT22;28708;52.224;6.924;2024-01-11T06:51:33;-4.90;99.90
43087;DHT22;28708;52.224;6.924;2024-01-11T06:54:00;-4.90;99.90
43087;DHT22;28708;52.224;6.924;2024-01-11T06:56:27;-4.80;99.90
43087;DHT22;28708;52.224;6.924;2024-01-11T06:58:54;-4.80;99.90
43087;DHT22;28708;52.224;6.924;2024-01-11T07:01:19;-4.80;99.90
43087;DHT22;28708;52.224;6.924;2024-01-11T07:03:45;-4.90;99.90
43087;DHT22;28708;52.224;6.924;2024-01-11T07:06:11;-4.90;99.90
43087;DHT22;28708;52.224;6.924;2024-01-11T07:08:37;-5.00;99.90
43087;DHT22;28708;52.224;6.924;2024-01-11T07:11:03;-4.90;99.90
43087;DHT22;28708;52.224;6.924;2024-01-11T07:13:30;-4.90;99.90
43087;DHT22;28708;52.224;6.924;2024-01-11T07:15:57;-4.80;99.90
43087;DHT22;28708;52.224;6.924;2024-01-11T07:18:24;-4.80;99.90
43087;DHT22;28708;52.224;6.924;2024-01-11T07:20:50;-4.80;99.90
43087;DHT22;28708;52.224;6.924;2024-01-11T07:23:19;-4.90;99.90
43087;DHT22;28708;52.224;6.924;2024-01-11T07:25:45;-5.00;99.90
43087;DHT22;28708;52.224;6.924;2024-01-11T07:28:11;-4.90;99.90
43087;DHT22;28708;52.224;6.924;2024-01-11T07:30:37;-4.90;99.90
43087;DHT22;28708;52.224;6.924;2024-01-11T07:33:02;-4.80;99.90
43087;DHT22;28708;52.224;6.924;2024-01-11T07:35:30;-4.90;99.90
43087;DHT22;28708;52.224;6.924;2024-01-11T07:37:55;-4.90;99.90
43087;DHT22;28708;52.224;6.924;2024-01-11T07:40:22;-4.80;99.90
43087;DHT22;28708;52.224;6.924;2024-01-11T07:42:47;-4.80;99.90
43087;DHT22;28708;52.224;6.924;2024-01-11T07:45:13;-4.80;99.90
43087;DHT22;28708;52.224;6.924;2024-01-11T07:47:42;-4.90;99.90
43087;DHT22;28708;52.224;6.924;2024-01-11T07:50:08;-4.80;99.90
43087;DHT22;28708;52.224;6.924;2024-01-11T07:52:38;-4.80;99.90
43087;DHT22;28708;52.224;6.924;2024-01-11T07:55:04;-4.80;99.90
43087;DHT22;28708;52.224;6.924;2024-01-11T07:57:34;-4.90;99.90
43087;DHT22;28708;52.224;6.924;2024-01-11T08:00:00;-4.80;99.90
43087;DHT22;28708;52.224;6.924;2024-01-11T08:02:26;-4.80;99.90
43087;DHT22;28708;52.224;6.924;2024-01-11T08:04:51;-4.80;99.90
43087;DHT22;28708;52.224;6.924;2024-01-11T08:07:17;-4.80;99.90
43087;DHT22;28708;52.224;6.924;2024-01-11T08:09:43;-4.80;99.90
43087;DHT22;28708;52.224;6.924;2024-01-11T08:12:17;-4.90;99.90
43087;DHT22;28708;52.224;6.924;2024-01-11T08:14:42;-4.80;99.90
43087;DHT22;28708;52.224;6.924;2024-01-11T08:17:08;-4.80;99.90
43087;DHT22;28708;52.224;6.924;2024-01-11T08:19:34;-4.80;99.90
43087;DHT22;28708;52.224;6.924;2024-01-11T08:22:00;-4.70;99.90
43087;DHT22;28708;52.224;6.924;2024-01-11T08:24:26;-4.60;99.90
43087;DHT22;28708;52.224;6.924;2024-01-11T08:26:52;-4.50;99.90
43087;DHT22;28708;52.224;6.924;2024-01-11T08:29:18;-4.60;99.90
43087;DHT22;28708;52.224;6.924;2024-01-11T08:31:47;-4.50;99.90
43087;DHT22;28708;52.224;6.924;2024-01-11T08:34:13;-4.60;99.90
43087;DHT22;28708;52.224;6.924;2024-01-11T08:36:39;-4.60;99.90
43087;DHT22;28708;52.224;6.924;2024-01-11T08:39:05;-4.50;99.90
43087;DHT22;28708;52.224;6.924;2024-01-11T08:41:32;-4.40;99.90
43087;DHT22;28708;52.224;6.924;2024-01-11T08:43:58;-4.40;99.90
43087;DHT22;28708;52.224;6.924;2024-01-11T08:46:25;-4.30;99.90
43087;DHT22;28708;52.224;6.924;2024-01-11T08:48:51;-4.30;99.90
43087;DHT22;28708;52.224;6.924;2024-01-11T08:51:17;-4.20;99.90
43087;DHT22;28708;52.224;6.924;2024-01-11T08:53:43;-4.20;99.90
43087;DHT22;28708;52.224;6.924;2024-01-11T08:56:09;-4.20;99.90
43087;DHT22;28708;52.224;6.924;2024-01-11T08:58:34;-4.10;99.90
43087;DHT22;28708;52.224;6.924;2024-01-11T09:01:02;-4.00;99.90
43087;DHT22;28708;52.224;6.924;2024-01-11T09:03:28;-3.80;99.90
43087;DHT22;28708;52.224;6.924;2024-01-11T09:05:54;-3.60;99.90
43087;DHT22;28708;52.224;6.924;2024-01-11T09:08:22;-3.60;99.90
43087;DHT22;28708;52.224;6.924;2024-01-11T09:10:48;-3.50;99.90
43087;DHT22;28708;52.224;6.924;2024-01-11T09:13:14;-3.40;99.90
43087;DHT22;28708;52.224;6.924;2024-01-11T09:15:41;-3.40;99.90
43087;DHT22;28708;52.224;6.924;2024-01-11T09:18:07;-3.30;99.90
43087;DHT22;28708;52.224;6.924;2024-01-11T09:20:32;-3.30;99.90
43087;DHT22;28708;52.224;6.924;2024-01-11T09:22:59;-3.30;99.90
43087;DHT22;28708;52.224;6.924;2024-01-11T09:25:26;-3.20;99.90
43087;DHT22;28708;52.224;6.924;2024-01-11T09:27:52;-3.10;99.90
43087;DHT22;28708;52.224;6.924;2024-01-11T09:30:18;-3.10;99.90
43087;DHT22;28708;52.224;6.924;2024-01-11T09:32:44;-3.10;99.90
43087;DHT22;28708;52.224;6.924;2024-01-11T09:35:09;-3.00;99.90
43087;DHT22;28708;52.224;6.924;2024-01-11T09:37:36;-3.00;99.90
43087;DHT22;28708;52.224;6.924;2024-01-11T09:40:01;-2.90;99.90
43087;DHT22;28708;52.224;6.924;2024-01-11T09:42:27;-2.90;99.90
43087;DHT22;28708;52.224;6.924;2024-01-11T09:44:54;-2.90;99.90
43087;DHT22;28708;52.224;6.924;2024-01-11T09:47:22;-2.90;99.90
43087;DHT22;28708;52.224;6.924;2024-01-11T09:49:49;-2.90;99.90
43087;DHT22;28708;52.224;6.924;2024-01-11T09:52:20;-2.90;99.90
43087;DHT22;28708;52.224;6.924;2024-01-11T09:54:47;-2.80;99.90
43087;DHT22;28708;52.224;6.924;2024-01-11T09:57:16;-2.70;99.90
43087;DHT22;28708;52.224;6.924;2024-01-11T09:59:45;-2.70;99.90
43087;DHT22;28708;52.224;6.924;2024-01-11T10:02:11;-2.60;99.90
43087;DHT22;28708;52.224;6.924;2024-01-11T10:04:37;-2.50;99.90
43087;DHT22;28708;52.224;6.924;2024-01-11T10:07:04;-2.40;99.90
43087;DHT22;28708;52.224;6.924;2024-01-11T10:09:31;-2.30;99.90
43087;DHT22;28708;52.224;6.924;2024-01-11T10:11:57;-2.20;99.90
43087;DHT22;28708;52.224;6.924;2024-01-11T10:14:23;-2.10;99.90
43087;DHT22;28708;52.224;6.924;2024-01-11T10:16:49;-2.10;99.90
43087;DHT22;28708;52.224;6.924;2024-01-11T10:19:14;-2.10;99.90
43087;DHT22;28708;52.224;6.924;2024-01-11T10:21:42;-2.00;99.90
43087;DHT22;28708;52.224;6.924;2024-01-11T10:24:07;-1.90;99.90
43087;DHT22;28708;52.224;6.924;2024-01-11T10:26:33;-1.80;99.90
43087;DHT22;28708;52.224;6.924;2024-01-11T10:29:02;-1.70;99.90
43087;DHT22;28708;52.224;6.924;2024-01-11T10:31:30;-1.70;99.90
43087;DHT22;28708;52.224;6.924;2024-01-11T10:33:57;-1.60;99.90
43087;DHT22;28708;52.224;6.924;2024-01-11T10:36:23;-1.70;99.90
43087;DHT22;28708;52.224;6.924;2024-01-11T10:38:49;-1.60;99.90
43087;DHT22;28708;52.224;6.924;2024-01-11T10:41:18;-1.60;99.90
43087;DHT22;28708;52.224;6.924;2024-01-11T10:43:43;-1.50;99.90
43087;DHT22;28708;52.224;6.924;2024-01-11T10:46:11;-1.50;99.90
43087;DHT22;28708;52.224;6.924;2024-01-11T10:48:38;-1.40;99.90
43087;DHT22;28708;52.224;6.924;2024-01-11T10:51:08;-1.30;99.90
43087;DHT22;28708;52.224;6.924;2024-01-11T10:53:45;-1.30;99.90
43087;DHT22;28708;52.224;6.924;2024-01-11T10:56:12;-1.30;99.90
43087;DHT22;28708;52.224;6.924;2024-01-11T10:58:43;-1.20;99.90
43087;DHT22;28708;52.224;6.924;2024-01-11T11:01:10;-1.10;99.90
43087;DHT22;28708;52.224;6.924;2024-01-11T11:03:37;-1.00;99.90
43087;DHT22;28708;52.224;6.924;2024-01-11T11:06:04;-1.00;99.90
43087;DHT22;28708;52.224;6.924;2024-01-11T11:08:31;-0.90;99.90
43087;DHT22;28708;52.224;6.924;2024-01-11T11:10:59;-0.80;99.90
43087;DHT22;28708;52.224;6.924;2024-01-11T11:13:26;-0.80;99.90
43087;DHT22;28708;52.224;6.924;2024-01-11T11:15:52;-0.80;99.90
43087;DHT22;28708;52.224;6.924;2024-01-11T11:18:19;-0.70;99.90
43087;DHT22;28708;52.224;6.924;2024-01-11T11:20:45;-0.70;99.90
43087;DHT22;28708;52.224;6.924;2024-01-11T11:23:14;-0.70;99.90
43087;DHT22;28708;52.224;6.924;2024-01-11T11:25:41;-0.50;99.90
43087;DHT22;28708;52.224;6.924;2024-01-11T11:28:07;-0.50;99.90
43087;DHT22;28708;52.224;6.924;2024-01-11T11:30:37;-0.40;99.90
43087;DHT22;28708;52.224;6.924;2024-01-11T11:35:42;-0.40;99.90
43087;DHT22;28708;52.224;6.924;2024-01-11T11:38:08;-0.30;99.90
43087;DHT22;28708;52.224;6.924;2024-01-11T11:40:40;-0.40;99.90
43087;DHT22;28708;52.224;6.924;2024-01-11T11:43:08;-0.40;99.90
43087;DHT22;28708;52.224;6.924;2024-01-11T11:45:34;-0.40;99.90
43087;DHT22;28708;52.224;6.924;2024-01-11T11:48:01;-0.30;99.90
43087;DHT22;28708;52.224;6.924;2024-01-11T11:50:29;-0.30;99.90
43087;DHT22;28708;52.224;6.924;2024-01-11T11:52:56;-0.20;99.90
43087;DHT22;28708;52.224;6.924;2024-01-11T11:55:23;-0.20;99.90
43087;DHT22;28708;52.224;6.924;2024-01-11T11:57:51;-0.20;99.90
43087;DHT22;28708;52.224;6.924;2024-01-11T12:00:17;-0.20;99.90
43087;DHT22;28708;52.224;6.924;2024-01-11T12:02:43;-0.10;99.90
43087;DHT22;28708;52.224;6.924;2024-01-11T12:05:09;-0.10;99.90
43087;DHT22;28708;52.224;6.924;2024-01-11T12:07:35;0.00;99.90
43087;DHT22;28708;52.224;6.924;2024-01-11T12:10:01;0.00;99.90
43087;DHT22;28708;52.224;6.924;2024-01-11T12:12:26;0.00;99.90
43087;DHT22;28708;52.224;6.924;2024-01-11T12:14:54;0.00;99.90
43087;DHT22;28708;52.224;6.924;2024-01-11T12:17:19;0.10;99.90
43087;DHT22;28708;52.224;6.924;2024-01-11T12:19:45;0.10;99.90
43087;DHT22;28708;52.224;6.924;2024-01-11T12:22:10;0.10;99.90
43087;DHT22;28708;52.224;6.924;2024-01-11T12:24:37;0.10;99.90
43087;DHT22;28708;52.224;6.924;2024-01-11T12:27:03;0.10;99.90
43087;DHT22;28708;52.224;6.924;2024-01-11T12:29:29;0.10;99.90
43087;DHT22;28708;52.224;6.924;2024-01-11T12:31:58;0.00;99.90
43087;DHT22;28708;52.224;6.924;2024-01-11T12:34:28;-0.10;99.90
43087;DHT22;28708;52.224;6.924;2024-01-11T12:36:54;-0.10;99.90
43087;DHT22;28708;52.224;6.924;2024-01-11T12:39:21;-0.10;99.90
43087;DHT22;28708;52.224;6.924;2024-01-11T12:41:49;-0.10;99.90
43087;DHT22;28708;52.224;6.924;2024-01-11T12:44:17;-0.10;99.90
43087;DHT22;28708;52.224;6.924;2024-01-11T12:46:43;0.00;99.90
43087;DHT22;28708;52.224;6.924;2024-01-11T12:49:12;0.10;99.90
43087;DHT22;28708;52.224;6.924;2024-01-11T12:51:37;0.10;99.90
43087;DHT22;28708;52.224;6.924;2024-01-11T12:54:11;0.10;99.90
43087;DHT22;28708;52.224;6.924;2024-01-11T12:56:41;0.20;99.90
43087;DHT22;28708;52.224;6.924;2024-01-11T12:59:08;0.20;99.90
43087;DHT22;28708;52.224;6.924;2024-01-11T13:01:36;0.20;99.90
43087;DHT22;28708;52.224;6.924;2024-01-11T13:04:02;0.30;99.90
43087;DHT22;28708;52.224;6.924;2024-01-11T13:06:29;0.30;99.90
43087;DHT22;28708;52.224;6.924;2024-01-11T13:08:56;0.20;99.90
43087;DHT22;28708;52.224;6.924;2024-01-11T13:11:22;0.30;99.90
43087;DHT22;28708;52.224;6.924;2024-01-11T13:13:50;0.30;99.90
43087;DHT22;28708;52.224;6.924;2024-01-11T13:16:19;0.20;99.90
43087;DHT22;28708;52.224;6.924;2024-01-11T13:18:45;0.20;99.90
43087;DHT22;28708;52.224;6.924;2024-01-11T13:21:11;0.30;99.90
43087;DHT22;28708;52.224;6.924;2024-01-11T13:23:39;0.40;99.90
43087;DHT22;28708;52.224;6.924;2024-01-11T13:26:06;0.40;99.90
43087;DHT22;28708;52.224;6.924;2024-01-11T13:28:35;0.40;99.90
43087;DHT22;28708;52.224;6.924;2024-01-11T13:31:01;0.40;99.90
43087;DHT22;28708;52.224;6.924;2024-01-11T13:33:27;0.40;99.90
43087;DHT22;28708;52.224;6.924;2024-01-11T13:35:54;0.40;99.90
43087;DHT22;28708;52.224;6.924;2024-01-11T13:38:19;0.40;99.90
43087;DHT22;28708;52.224;6.924;2024-01-11T13:40:45;0.40;99.90
43087;DHT22;28708;52.224;6.924;2024-01-11T13:43:11;0.50;99.90
43087;DHT22;28708;52.224;6.924;2024-01-11T13:45:36;0.40;99.90
43087;DHT22;28708;52.224;6.924;2024-01-11T13:48:03;0.50;99.90
43087;DHT22;28708;52.224;6.924;2024-01-11T13:50:29;0.50;99.90
43087;DHT22;28708;52.224;6.924;2024-01-11T13:52:55;0.50;99.90
43087;DHT22;28708;52.224;6.924;2024-01-11T13:55:20;0.50;99.90
43087;DHT22;28708;52.224;6.924;2024-01-11T13:57:47;0.40;99.90
43087;DHT22;28708;52.224;6.924;2024-01-11T14:00:13;0.40;99.90
43087;DHT22;28708;52.224;6.924;2024-01-11T14:02:40;0.40;99.90
43087;DHT22;28708;52.224;6.924;2024-01-11T14:05:08;0.40;99.90
43087;DHT22;28708;52.224;6.924;2024-01-11T14:07:39;0.40;99.90
43087;DHT22;28708;52.224;6.924;2024-01-11T14:10:05;0.40;99.90
43087;DHT22;28708;52.224;6.924;2024-01-11T14:12:32;0.40;99.90
43087;DHT22;28708;52.224;6.924;2024-01-11T14:15:05;0.40;99.90
43087;DHT22;28708;52.224;6.924;2024-01-11T14:17:32;0.30;99.90
43087;DHT22;28708;52.224;6.924;2024-01-11T14:20:00;0.30;99.90
43087;DHT22;28708;52.224;6.924;2024-01-11T14:22:26;0.30;99.90
43087;DHT22;28708;52.224;6.924;2024-01-11T14:24:52;0.30;99.90
43087;DHT22;28708;52.224;6.924;2024-01-11T14:27:18;0.30;99.90
43087;DHT22;28708;52.224;6.924;2024-01-11T14:29:44;0.30;99.90
43087;DHT22;28708;52.224;6.924;2024-01-11T14:32:10;0.30;99.90
43087;DHT22;28708;52.224;6.924;2024-01-11T14:34:36;0.30;99.90
43087;DHT22;28708;52.224;6.924;2024-01-11T14:37:02;0.30;99.90
43087;DHT22;28708;52.224;6.924;2024-01-11T14:39:28;0.30;99.90
43087;DHT22;28708;52.224;6.924;2024-01-11T14:41:53;0.40;99.90
43087;DHT22;28708;52.224;6.924;2024-01-11T14:44:19;0.40;99.90
43087;DHT22;28708;52.224;6.924;2024-01-11T14:46:45;0.30;99.90
43087;DHT22;28708;52.224;6.924;2024-01-11T14:49:10;0.30;99.90
43087;DHT22;28708;52.224;6.924;2024-01-11T14:51:36;0.30;99.90
43087;DHT22;28708;52.224;6.924;2024-01-11T14:54:03;0.30;99.90
43087;DHT22;28708;52.224;6.924;2024-01-11T14:56:30;0.30;99.90
43087;DHT22;28708;52.224;6.924;2024-01-11T14:58:56;0.30;99.90
43087;DHT22;28708;52.224;6.924;2024-01-11T15:01:21;0.40;99.90
43087;DHT22;28708;52.224;6.924;2024-01-11T15:03:47;0.40;99.90
43087;DHT22;28708;52.224;6.924;2024-01-11T15:06:13;0.40;99.90
43087;DHT22;28708;52.224;6.924;2024-01-11T15:08:39;0.40;99.90
43087;DHT22;28708;52.224;6.924;2024-01-11T15:11:05;0.30;99.90
43087;DHT22;28708;52.224;6.924;2024-01-11T15:13:31;0.30;99.90
43087;DHT22;28708;52.224;6.924;2024-01-11T15:15:57;0.30;99.90
43087;DHT22;28708;52.224;6.924;2024-01-11T15:18:22;0.30;99.90
43087;DHT22;28708;52.224;6.924;2024-01-11T15:20:48;0.20;99.90
43087;DHT22;28708;52.224;6.924;2024-01-11T15:23:14;0.20;99.90
43087;DHT22;28708;52.224;6.924;2024-01-11T15:25:39;0.20;99.90
43087;DHT22;28708;52.224;6.924;2024-01-11T15:28:05;0.20;99.90
43087;DHT22;28708;52.224;6.924;2024-01-11T15:30:31;0.20;99.90
43087;DHT22;28708;52.224;6.924;2024-01-11T15:32:56;0.30;99.90